createdAt,value
2018-02-08T15:01:57.980Z,91.50
2018-02-08T15:06:00.797Z,89.30
2018-02-08T15:08:30.120Z,80.27
2018-02-08T15:13:51.457Z,96.93
2018-02-08T15:16:19.009Z,89.90
2018-02-08T15:18:51.783Z,86.63
2018-02-08T15:21:21.894Z,84.03
2018-02-08T15:23:54.284Z,92.10
2018-02-08T15:29:29.201Z,89.60
2018-02-08T15:31:57.076Z,79.70
2018-02-08T15:34:25.595Z,106.93
2018-02-08T15:36:53.869Z,89.60
2018-02-08T15:42:13.846Z,86.20
2018-02-08T15:44:41.421Z,86.00
2018-02-08T15:47:08.964Z,87.60
2018-02-08T15:49:42.870Z,101.73
2018-02-08T15:52:25.104Z,80.80
2018-02-08T15:54:53.654Z,87.07
2018-02-08T15:57:23.866Z,81.40
2018-02-08T15:59:51.560Z,86.57
2018-02-08T16:02:19.245Z,87.63
2018-02-08T16:04:46.852Z,91.53
2018-02-08T16:07:14.472Z,83.47
2018-02-08T16:09:42.037Z,97.20
2018-02-08T16:12:09.569Z,87.17
2018-02-08T16:14:42.542Z,79.63
2018-02-08T16:17:10.413Z,84.10
2018-02-08T16:19:38.075Z,81.93
2018-02-08T16:22:05.615Z,79.50
2018-02-08T16:24:33.226Z,83.47
2018-02-08T16:27:00.885Z,81.90
2018-02-08T16:29:28.456Z,80.27
2018-02-08T16:34:53.672Z,91.80
2018-02-08T16:37:22.050Z,90.33
2018-02-08T16:39:49.647Z,86.13
2018-02-08T16:42:17.182Z,99.80
2018-02-08T16:44:44.905Z,107.50
2018-02-08T16:47:12.716Z,106.80
2018-02-08T16:49:40.320Z,97.83
2018-02-08T16:52:08.624Z,110.73
2018-02-08T16:54:56.512Z,102.37
2018-02-08T16:57:24.136Z,106.60
2018-02-08T16:59:51.922Z,100.30
2018-02-08T17:02:19.575Z,109.90
2018-02-08T17:04:47.109Z,120.03
2018-02-08T17:07:15.520Z,104.73
2018-02-08T17:09:43.115Z,111.73
2018-02-08T17:12:10.651Z,111.67
2018-02-08T17:14:38.324Z,108.20
2018-02-08T17:17:05.889Z,116.50
2018-02-08T17:19:33.605Z,116.03
2018-02-08T17:22:01.149Z,95.77
2018-02-08T17:24:28.856Z,89.97
2018-02-08T17:26:56.424Z,89.67
2018-02-08T17:29:24.052Z,72.40
2018-02-08T17:31:51.680Z,88.27
2018-02-08T17:34:19.347Z,74.33
2018-02-08T17:36:47.066Z,85.93
2018-02-08T17:39:17.019Z,88.70
2018-02-08T17:41:44.745Z,85.33
2018-02-08T17:46:45.693Z,102.63
2018-02-08T17:49:14.308Z,105.20
2018-02-08T17:51:42.032Z,105.93
2018-02-08T17:54:09.628Z,106.60
2018-02-08T17:56:37.212Z,123.80
2018-02-08T17:59:04.749Z,119.17
2018-02-08T18:01:32.309Z,116.43
2018-02-08T18:03:59.853Z,127.07
2018-02-08T18:06:27.471Z,119.10
2018-02-08T18:08:55.080Z,138.70
2018-02-08T18:11:22.873Z,130.53
2018-02-08T18:13:50.408Z,127.23
2018-02-08T18:16:17.986Z,130.53
2018-02-08T18:18:45.567Z,125.80
2018-02-08T18:21:13.332Z,128.57
2018-02-08T18:23:41.080Z,124.73
2018-02-08T18:26:08.646Z,109.60
2018-02-08T18:28:36.221Z,116.83
2018-02-08T18:31:03.780Z,101.17
2018-02-08T18:33:31.355Z,101.50
2018-02-08T18:35:58.989Z,106.20
2018-02-08T18:38:26.537Z,108.77
2018-02-08T18:40:54.077Z,99.27
2018-02-08T18:43:21.634Z,113.13
2018-02-08T18:45:49.244Z,106.13
2018-02-08T18:48:16.788Z,107.70
2018-02-08T18:50:44.404Z,120.80
2018-02-08T18:53:11.992Z,106.60
2018-02-08T18:55:39.562Z,109.73
2018-02-08T18:58:07.102Z,124.40
2018-02-08T19:00:34.713Z,113.97
2018-02-08T19:03:02.245Z,119.23
2018-02-08T19:05:29.815Z,113.23
2018-02-08T19:07:57.367Z,115.90
2018-02-08T19:10:25.024Z,114.40
2018-02-08T19:12:52.586Z,115.53
2018-02-08T19:15:20.202Z,111.00
2018-02-08T19:17:47.776Z,120.40
2018-02-08T19:20:15.330Z,124.03
2018-02-08T19:22:42.885Z,112.03
2018-02-08T19:25:10.454Z,114.83
2018-02-08T19:27:38.085Z,122.10
2018-02-08T19:30:05.717Z,138.53
2018-02-08T19:32:33.284Z,128.33
2018-02-08T19:35:00.833Z,128.63
2018-02-08T19:37:28.399Z,114.20
2018-02-08T19:39:55.996Z,123.20
2018-02-08T19:42:23.805Z,119.33
2018-02-08T19:44:51.341Z,121.97
2018-02-08T19:47:18.885Z,132.27
2018-02-08T19:49:46.432Z,122.30
2018-02-08T19:52:14.023Z,127.20
2018-02-08T19:54:41.576Z,134.23
2018-02-08T19:57:09.995Z,128.53
2018-02-08T19:59:37.645Z,142.37
2018-02-08T20:02:05.226Z,124.23
2018-02-08T20:04:32.868Z,130.30
2018-02-08T20:07:00.445Z,125.20
2018-02-08T20:09:28.025Z,117.17
2018-02-08T20:11:56.481Z,119.90
2018-02-08T20:14:30.653Z,124.93
2018-02-08T20:16:58.222Z,127.67
2018-02-08T20:19:25.825Z,128.03
2018-02-08T20:21:53.418Z,114.97
2018-02-08T20:24:20.973Z,127.33
2018-02-08T20:26:48.667Z,126.87
2018-02-08T20:29:16.322Z,136.13
2018-02-08T20:31:43.906Z,123.10
2018-02-08T20:34:11.498Z,147.70
2018-02-08T20:36:39.080Z,132.03
2018-02-08T20:39:08.109Z,134.90
2018-02-08T20:41:35.838Z,127.23
2018-02-08T20:44:03.435Z,140.20
2018-02-08T20:46:31.473Z,132.73
2018-02-08T20:48:59.864Z,146.47
2018-02-08T20:51:28.595Z,140.07
2018-02-08T20:53:58.734Z,149.77
2018-02-08T20:56:26.810Z,154.67
2018-02-08T20:58:56.677Z,146.27
2018-02-08T21:01:25.588Z,147.17
2018-02-08T21:03:54.624Z,142.13
2018-02-08T21:06:22.335Z,151.73
2018-02-08T21:08:49.899Z,151.70
2018-02-08T21:11:17.553Z,150.77
2018-02-08T21:13:45.522Z,170.80
2018-02-08T21:16:13.861Z,153.13
2018-02-08T21:18:45.399Z,157.53
2018-02-08T21:21:13.256Z,148.43
2018-02-08T21:23:41.089Z,155.30
2018-02-08T21:26:11.109Z,164.03
2018-02-08T21:28:38.829Z,153.63
2018-02-08T21:31:06.603Z,167.03
2018-02-08T21:33:34.243Z,132.87
2018-02-08T21:36:01.931Z,143.50
2018-02-08T21:38:29.658Z,155.17
2018-02-08T21:40:57.308Z,148.90
2018-02-08T21:43:25.805Z,145.70
2018-02-08T21:45:53.422Z,169.97
2018-02-08T21:48:22.298Z,139.60
2018-02-08T21:50:49.994Z,169.03
2018-02-08T21:53:18.048Z,151.93
2018-02-08T21:55:45.769Z,138.93
2018-02-08T21:58:15.340Z,156.30
2018-02-08T22:00:43.202Z,161.10
2018-02-08T22:03:11.183Z,170.43
2018-02-08T22:05:39.004Z,126.47
2018-02-08T22:08:07.993Z,146.90
2018-02-08T22:10:36.541Z,153.80
2018-02-08T22:13:04.512Z,144.93
2018-02-08T22:15:33.673Z,148.57
2018-02-08T22:18:01.439Z,131.53
2018-02-08T22:20:30.942Z,140.00
2018-02-08T22:22:58.607Z,150.00
2018-02-08T22:25:26.204Z,159.17
2018-02-08T22:30:33.188Z,148.73
2018-02-08T22:33:01.907Z,152.00
2018-02-08T22:35:31.745Z,138.80
2018-02-08T22:38:03.384Z,141.40
2018-02-08T22:40:31.028Z,131.30
2018-02-08T22:43:03.276Z,134.77
2018-02-08T22:45:32.125Z,149.10
2018-02-08T22:48:01.561Z,154.37
2018-02-08T22:50:32.057Z,131.63
2018-02-08T22:53:01.644Z,145.83
2018-02-08T22:55:32.590Z,125.80
2018-02-08T22:58:01.551Z,116.40
2018-02-08T23:00:31.188Z,119.83
2018-02-08T23:03:01.989Z,113.60
2018-02-08T23:05:30.623Z,103.53
2018-02-08T23:08:01.408Z,127.67
2018-02-08T23:10:31.941Z,117.27
2018-02-08T23:13:00.725Z,110.07
2018-02-08T23:15:30.495Z,112.47
2018-02-08T23:18:02.207Z,117.30
2018-02-08T23:20:31.131Z,116.87
2018-02-08T23:23:01.079Z,123.13
2018-02-08T23:25:30.665Z,127.60
2018-02-08T23:28:02.766Z,108.37
2018-02-08T23:30:30.407Z,118.80
2018-02-08T23:32:58.004Z,118.07
2018-02-08T23:35:25.554Z,105.07
2018-02-08T23:37:53.203Z,126.87
2018-02-08T23:40:20.920Z,111.00
2018-02-08T23:42:48.562Z,105.33
2018-02-08T23:45:16.230Z,122.60
2018-02-08T23:47:45.672Z,119.13
2018-02-08T23:50:16.820Z,138.80
2018-02-08T23:52:44.505Z,130.57
2018-02-08T23:55:14.736Z,139.93
2018-02-08T23:57:42.401Z,121.33
